Time;durP1;ratioP1;P1;durP2;ratioP2;P2;SDS_P1;SDS_P2;PMS_P1;PMS_P2;Temp;Humidity;BMP_temperature;BMP_pressure;BME280_temperature;BME280_humidity;BME280_pressure;Samples;Min_cycle;Max_cycle;Signal;HPM_P1;HPM_P2
2022/09/20 00:00:49;;;;;;;7.37;3.15;;;;;;;13.85;100.00;99068.11;1597194;88;20974;-71
2022/09/20 00:03:16;;;;;;;7.87;3.80;;;;;;;13.87;100.00;99076.28;1597243;88;21024;-73
2022/09/20 00:05:44;;;;;;;4.90;2.87;;;;;;;13.91;100.00;99072.23;1597352;89;21164;-73
2022/09/20 00:08:14;;;;;;;8.33;3.40;;;;;;;13.94;100.00;99072.09;1597251;88;21562;-74
2022/09/20 00:10:42;;;;;;;7.35;3.47;;;;;;;13.96;100.00;99069.20;1597406;89;21015;-71
2022/09/20 00:13:12;;;;;;;4.78;3.05;;;;;;;13.97;100.00;99071.40;1597237;89;21086;-73
2022/09/20 00:15:42;;;;;;;5.97;3.20;;;;;;;13.99;100.00;99068.48;1597402;89;21082;-73
2022/09/20 00:18:08;;;;;;;7.55;3.92;;;;;;;13.97;100.00;99074.95;1597288;88;21117;-71
2022/09/20 00:20:38;;;;;;;6.03;3.62;;;;;;;13.96;100.00;99070.59;1609331;88;21487;-69
2022/09/20 00:23:05;;;;;;;5.05;3.08;;;;;;;13.96;100.00;99075.31;1614516;88;20990;-74
2022/09/20 00:25:32;;;;;;;5.55;3.10;;;;;;;13.97;100.00;99072.78;1615009;88;21001;-74
2022/09/20 00:27:58;;;;;;;8.05;3.87;;;;;;;13.96;100.00;99070.59;1618592;88;21089;-74
2022/09/20 00:30:25;;;;;;;5.17;2.95;;;;;;;13.92;100.00;99071.05;1615187;88;21067;-72
2022/09/20 00:32:51;;;;;;;9.40;4.60;;;;;;;13.91;100.00;99065.88;1615031;88;21549;-73
2022/09/20 00:35:18;;;;;;;8.63;3.95;;;;;;;13.91;100.00;99065.30;1614989;88;21514;-71
2022/09/20 00:37:46;;;;;;;8.18;4.75;;;;;;;13.86;100.00;99060.83;1615219;88;21029;-70
2022/09/20 00:40:16;;;;;;;6.05;3.87;;;;;;;13.80;100.00;99060.06;1615168;88;21025;-73
2022/09/20 00:42:42;;;;;;;6.75;4.08;;;;;;;13.77;100.00;99060.17;1615177;88;21112;-73
2022/09/20 00:45:23;;;;;;;9.20;4.30;;;;;;;13.79;100.00;99060.62;1615073;88;20974;-72
2022/09/20 00:48:15;;;;;;;8.05;4.15;;;;;;;13.70;100.00;99059.99;1615279;88;21061;-73
2022/09/20 00:50:51;;;;;;;7.40;3.65;;;;;;;13.56;100.00;99057.62;1615008;88;21486;-69
2022/09/20 00:53:31;;;;;;;6.78;3.50;;;;;;;13.45;100.00;99060.03;1643985;86;21021;-73
2022/09/20 00:56:08;;;;;;;8.65;3.70;;;;;;;13.41;100.00;99066.06;1659976;86;21498;-70
2022/09/20 00:58:40;;;;;;;11.05;3.85;;;;;;;13.43;100.00;99066.48;1660122;86;20956;-72
2022/09/20 01:01:07;;;;;;;7.22;3.62;;;;;;;13.45;100.00;99058.08;1659871;86;20987;-72
2022/09/20 01:03:34;;;;;;;6.35;3.83;;;;;;;13.41;100.00;99060.52;1660037;86;20936;-73
2022/09/20 01:06:03;;;;;;;6.83;3.22;;;;;;;13.39;100.00;99060.28;1660089;86;21060;-74
2022/09/20 01:08:30;;;;;;;7.20;3.80;;;;;;;13.39;100.00;99059.50;1660060;86;21221;-72
2022/09/20 01:10:57;;;;;;;6.45;3.60;;;;;;;13.43;100.00;99065.11;1659865;86;21087;-74
2022/09/20 01:13:24;;;;;;;9.33;3.67;;;;;;;13.46;100.00;99067.20;1660048;86;20996;-70
2022/09/20 01:15:50;;;;;;;6.30;3.95;;;;;;;13.45;100.00;99059.47;1660277;86;20967;-72
2022/09/20 01:18:17;;;;;;;6.37;3.55;;;;;;;13.41;100.00;99062.69;1660066;86;21056;-74
2022/09/20 01:20:46;;;;;;;6.90;3.90;;;;;;;13.33;100.00;99058.92;1654207;86;20937;-72
2022/09/20 01:23:38;;;;;;;5.90;3.60;;;;;;;13.33;100.00;99066.41;1650628;86;21008;-73
2022/09/20 01:26:47;;;;;;;10.38;3.65;;;;;;;13.35;100.00;99058.00;1650778;86;20897;-71
2022/09/20 01:29:37;;;;;;;6.90;4.30;;;;;;;13.37;100.00;99057.65;1650943;86;21454;-74
2022/09/20 01:32:09;;;;;;;7.58;4.37;;;;;;;13.40;100.00;99058.33;1644267;87;20977;-71
2022/09/20 01:34:38;;;;;;;7.10;4.05;;;;;;;13.42;100.00;99063.51;1650955;86;21781;-67
2022/09/20 01:37:38;;;;;;;7.17;3.67;;;;;;;13.45;100.00;99066.95;1650681;86;21592;-69
2022/09/20 01:40:36;;;;;;;7.37;4.42;;;;;;;13.43;100.00;99065.92;1650692;86;20857;-73
2022/09/20 01:43:33;;;;;;;9.80;3.92;;;;;;;13.33;100.00;99068.61;1650485;86;21541;-73
2022/09/20 01:46:08;;;;;;;8.23;3.95;;;;;;;13.30;100.00;99067.92;1650745;87;20916;-73
2022/09/20 01:48:38;;;;;;;9.20;4.53;;;;;;;13.28;100.00;99066.08;1649520;86;21216;-73
2022/09/20 01:51:34;;;;;;;6.53;3.80;;;;;;;13.27;100.00;99060.33;1650646;86;20850;-73
2022/09/20 01:54:32;;;;;;;4.92;3.62;;;;;;;13.18;100.00;99059.64;1602775;86;21020;-74
2022/09/20 01:57:45;;;;;;;11.83;4.15;;;;;;;12.98;100.00;99053.93;1650672;87;21016;-72
2022/09/20 02:00:17;;;;;;;8.20;4.20;;;;;;;12.78;100.00;99053.13;1650833;86;20964;-73
2022/09/20 02:03:11;;;;;;;6.30;4.37;;;;;;;12.64;100.00;99047.95;1651143;86;21398;-71
2022/09/20 02:05:58;;;;;;;8.15;4.35;;;;;;;12.62;100.00;99050.84;1650324;86;21628;-70
2022/09/20 02:08:57;;;;;;;11.30;5.22;;;;;;;12.55;100.00;99050.03;1650654;86;20929;-68
2022/09/20 02:11:49;;;;;;;6.67;4.37;;;;;;;12.50;100.00;99048.87;1650133;86;21011;-72
2022/09/20 02:14:23;;;;;;;9.28;4.37;;;;;;;12.57;100.00;99053.27;1650811;86;21078;-72
2022/09/20 02:16:55;;;;;;;8.20;4.35;;;;;;;12.56;100.00;99050.82;1645372;87;21157;-69
2022/09/20 02:19:32;;;;;;;8.88;4.03;;;;;;;12.60;100.00;99063.63;1624862;87;21048;-67
2022/09/20 02:22:30;;;;;;;7.00;4.42;;;;;;;12.63;100.00;99063.50;1650595;86;21055;-71
2022/09/20 02:25:30;;;;;;;6.53;4.22;;;;;;;12.64;100.00;99064.53;1654405;86;21103;-72
2022/09/20 02:28:20;;;;;;;10.58;4.55;;;;;;;12.66;100.00;99058.66;1649672;86;20949;-71
2022/09/20 02:31:12;;;;;;;7.92;3.95;;;;;;;12.56;100.00;99059.92;1650721;86;21245;-70
2022/09/20 02:33:45;;;;;;;8.50;4.20;;;;;;;12.41;100.00;99064.18;1650660;87;20996;-72
2022/09/20 02:36:36;;;;;;;10.38;4.28;;;;;;;12.42;100.00;99057.49;1650499;86;21505;-70
2022/09/20 02:39:21;;;;;;;6.53;3.83;;;;;;;12.46;100.00;99059.00;1651091;86;20980;-70
2022/09/20 02:42:20;;;;;;;15.53;3.92;;;;;;;12.46;100.00;99057.61;1650542;86;21027;-68
2022/09/20 02:45:21;;;;;;;7.37;4.12;;;;;;;12.48;100.00;99056.13;1650907;86;21117;-70
2022/09/20 02:47:48;;;;;;;6.45;3.85;;;;;;;12.49;100.00;99059.12;1650641;87;21040;-70
2022/09/20 02:50:50;;;;;;;5.90;3.37;;;;;;;12.47;100.00;99056.48;1650805;86;20905;-73
2022/09/20 02:53:52;;;;;;;8.18;3.87;;;;;;;12.50;100.00;99062.70;1650483;86;21095;-71
2022/09/20 02:56:56;;;;;;;13.45;3.83;;;;;;;12.55;100.00;99062.47;1650675;86;20983;-73
2022/09/20 02:59:32;;;;;;;5.65;3.52;;;;;;;12.56;100.00;99062.69;1650571;87;21322;-73
2022/09/20 03:02:32;;;;;;;7.53;3.62;;;;;;;12.61;100.00;99061.65;1649940;87;21024;-69
2022/09/20 03:05:28;;;;;;;11.30;4.20;;;;;;;12.64;100.00;99063.15;1650614;86;21056;-73
2022/09/20 03:08:12;;;;;;;7.85;3.67;;;;;;;12.63;100.00;99062.93;1650731;87;21478;-73
2022/09/20 03:11:03;;;;;;;12.75;3.75;;;;;;;12.54;100.00;99064.98;1650713;87;21016;-71
2022/09/20 03:13:57;;;;;;;7.05;3.75;;;;;;;12.50;100.00;99066.27;1650640;86;21580;-72
2022/09/20 03:16:35;;;;;;;9.63;3.83;;;;;;;12.53;100.00;99068.34;1650655;87;20985;-73
2022/09/20 03:19:27;;;;;;;8.43;4.15;;;;;;;12.47;100.00;99063.39;1648174;87;21037;-73
2022/09/20 03:22:05;;;;;;;6.00;4.03;;;;;;;12.41;100.00;99076.61;1650083;86;21046;-74
2022/09/20 03:25:02;;;;;;;5.53;3.55;;;;;;;12.35;100.00;99074.63;1650393;86;21474;-70
2022/09/20 03:27:57;;;;;;;9.33;4.22;;;;;;;12.41;100.00;99076.05;1650388;86;21250;-72
2022/09/20 03:30:41;;;;;;;7.45;3.77;;;;;;;12.45;100.00;99076.73;1650900;87;20913;-71
2022/09/20 03:33:13;;;;;;;9.18;3.72;;;;;;;12.46;100.00;99078.34;1648807;86;21056;-68
2022/09/20 03:36:11;;;;;;;5.85;4.00;;;;;;;12.49;100.00;99083.98;1651010;87;21040;-73
2022/09/20 03:39:16;;;;;;;11.80;4.22;;;;;;;12.58;100.00;99083.88;1650654;87;21103;-69
2022/09/20 03:42:17;;;;;;;8.05;3.42;;;;;;;12.66;100.00;99086.30;1650706;86;21986;-73
2022/09/20 03:45:04;;;;;;;5.92;3.67;;;;;;;12.72;100.00;99088.27;1650507;87;20945;-72
2022/09/20 03:47:48;;;;;;;7.97;4.20;;;;;;;12.78;100.00;99084.11;1649821;86;21012;-72
2022/09/20 03:50:49;;;;;;;6.42;4.08;;;;;;;12.77;100.00;99080.56;1650684;87;20956;-71
2022/09/20 03:53:55;;;;;;;7.55;4.47;;;;;;;12.74;100.00;99085.38;1633732;87;20932;-71
2022/09/20 03:56:47;;;;;;;5.87;3.50;;;;;;;12.71;100.00;99087.45;1650717;86;21871;-72
2022/09/20 03:59:49;;;;;;;4.08;3.25;;;;;;;12.72;100.00;99093.80;1650729;86;20949;-73
2022/09/20 04:02:39;;;;;;;10.23;3.40;;;;;;;12.73;100.00;99095.39;1650375;86;21005;-73
2022/09/20 04:05:13;;;;;;;6.05;3.90;;;;;;;12.70;100.00;99091.94;1650878;86;21535;-71
2022/09/20 04:07:48;;;;;;;7.37;3.90;;;;;;;12.66;100.00;99091.25;1650250;87;21081;-72
2022/09/20 04:10:39;;;;;;;8.40;4.58;;;;;;;12.65;100.00;99086.89;1650718;86;21434;-73
2022/09/20 04:13:32;;;;;;;9.50;4.22;;;;;;;12.63;100.00;99084.22;1650526;86;20949;-70
2022/09/20 04:16:30;;;;;;;6.00;4.20;;;;;;;12.62;100.00;99087.55;1650871;87;21012;-72
2022/09/20 04:19:21;;;;;;;6.33;4.08;;;;;;;12.57;100.00;99085.05;1621767;88;21609;-71
2022/09/20 04:21:55;;;;;;;10.03;3.83;;;;;;;12.50;100.00;99076.52;1650652;86;21020;-72
2022/09/20 04:24:32;;;;;;;7.35;4.22;;;;;;;12.48;100.00;99077.42;1650609;86;21146;-72
2022/09/20 04:27:22;;;;;;;9.68;4.60;;;;;;;12.49;100.00;99083.17;1650509;87;21541;-69
2022/09/20 04:30:17;;;;;;;5.90;3.77;;;;;;;12.52;100.00;99086.05;1651256;87;21008;-70
2022/09/20 04:33:00;;;;;;;9.18;5.28;;;;;;;12.58;100.00;99090.80;1651035;86;21021;-70
2022/09/20 04:38:54;;;;;;;8.98;4.87;;;;;;;12.75;100.00;99098.06;1650804;87;21110;-73
2022/09/20 04:41:28;;;;;;;7.87;4.75;;;;;;;12.78;100.00;99100.70;1650822;86;21512;-71
2022/09/20 04:44:20;;;;;;;13.43;4.90;;;;;;;12.84;100.00;99100.72;1650910;86;21000;-73
2022/09/20 04:47:14;;;;;;;8.25;4.55;;;;;;;12.90;100.00;99109.00;1651101;87;20976;-70
2022/09/20 04:49:58;;;;;;;10.93;5.55;;;;;;;12.89;100.00;99107.40;1650983;86;21047;-73
2022/09/20 04:52:42;;;;;;;9.73;4.35;;;;;;;12.85;100.00;99110.61;1650755;86;21097;-69
2022/09/20 04:55:45;;;;;;;11.55;5.28;;;;;;;12.78;100.00;99112.56;1650494;86;21465;-70
2022/09/20 04:58:39;;;;;;;16.95;5.05;;;;;;;12.70;100.00;99103.00;1650763;87;21078;-71
2022/09/20 05:01:31;;;;;;;11.45;5.78;;;;;;;12.68;100.00;99111.64;1650843;86;21537;-72
2022/09/20 05:04:41;;;;;;;10.70;5.50;;;;;;;12.67;100.00;99119.71;1650725;86;21047;-71
2022/09/20 05:07:44;;;;;;;14.55;5.40;;;;;;;12.70;100.00;99119.58;1650703;86;21171;-72
2022/09/20 05:10:32;;;;;;;13.20;5.55;;;;;;;12.74;100.00;99113.02;1650614;86;20913;-69
2022/09/20 05:13:28;;;;;;;8.08;4.92;;;;;;;12.77;100.00;99111.53;1650924;87;21007;-73
2022/09/20 05:16:14;;;;;;;17.40;6.08;;;;;;;12.85;100.00;99116.14;1650671;86;21013;-69
2022/09/20 05:18:56;;;;;;;11.95;5.30;;;;;;;12.97;100.00;99111.75;1650427;86;21054;-72
2022/09/20 05:21:45;;;;;;;12.75;6.15;;;;;;;13.03;100.00;99109.00;1652942;86;21159;-71
2022/09/20 05:24:45;;;;;;;12.95;6.35;;;;;;;13.12;100.00;99108.29;1657920;86;21000;-70
2022/09/20 05:27:44;;;;;;;16.62;6.20;;;;;;;13.20;100.00;99107.95;1656991;86;21008;-70
2022/09/20 05:30:33;;;;;;;11.50;6.33;;;;;;;13.26;100.00;99110.70;1635713;86;20936;-72
2022/09/20 05:33:30;;;;;;;10.35;5.78;;;;;;;13.31;100.00;99100.53;1657910;86;21572;-71
2022/09/20 05:36:11;;;;;;;10.80;6.20;;;;;;;13.38;100.00;99102.95;1657839;86;21187;-67
2022/09/20 05:39:24;;;;;;;20.90;6.62;;;;;;;13.44;100.00;99100.73;1657844;86;20929;-65
2022/09/20 05:42:19;;;;;;;12.88;6.75;;;;;;;13.50;100.00;99099.91;1657997;86;21545;-72
2022/09/20 05:45:38;;;;;;;10.50;5.97;;;;;;;13.60;100.00;99109.14;1657672;86;20948;-70
2022/09/20 05:48:30;;;;;;;15.65;6.72;;;;;;;13.72;100.00;99105.53;1657936;86;21016;-73
2022/09/20 05:51:24;;;;;;;12.68;5.45;;;;;;;13.75;100.00;99099.28;1658004;86;21312;-70
2022/09/20 05:54:37;;;;;;;10.32;6.35;;;;;;;13.78;100.00;99097.79;1657801;86;21473;-69
2022/09/20 05:57:14;;;;;;;8.65;5.65;;;;;;;13.86;100.00;99104.32;1657975;86;20972;-69
2022/09/20 06:00:11;;;;;;;10.72;5.28;;;;;;;13.93;100.00;99103.72;1657763;86;21040;-67
2022/09/20 06:03:05;;;;;;;9.55;4.62;;;;;;;13.95;100.00;99106.38;1655191;86;21095;-69
2022/09/20 06:05:55;;;;;;;7.33;4.72;;;;;;;14.02;100.00;99104.38;1643880;86;22012;-70
2022/09/20 06:08:42;;;;;;;7.70;4.15;;;;;;;14.07;100.00;99095.00;1656818;86;20988;-71
2022/09/20 06:11:54;;;;;;;8.58;4.03;;;;;;;14.10;100.00;99103.41;1635447;86;21004;-65
2022/09/20 06:14:38;;;;;;;9.45;3.77;;;;;;;14.12;100.00;99102.45;1657851;86;20944;-67
2022/09/20 06:17:39;;;;;;;8.75;3.60;;;;;;;14.14;100.00;99103.52;1604821;89;21024;-66
2022/09/20 06:20:28;;;;;;;9.80;4.30;;;;;;;14.20;100.00;99097.11;1657967;86;21814;-70
2022/09/20 06:22:58;;;;;;;9.53;3.83;;;;;;;14.25;100.00;99092.70;1657679;86;20957;-74
2022/09/20 06:25:42;;;;;;;4.90;3.80;;;;;;;14.27;100.00;99091.77;1657933;86;21064;-71
2022/09/20 06:28:19;;;;;;;;;;;;;;;14.29;100.00;99094.19;1660205;86;21019;-65
2022/09/20 06:30:50;;;;;;;6.85;3.62;;;;;;;14.32;100.00;99094.28;1658163;86;20167;-71
2022/09/20 06:33:24;;;;;;;6.47;3.77;;;;;;;14.35;100.00;99094.95;1657768;86;21289;-72
2022/09/20 06:41:43;;;;;;;4.90;3.52;;;;;;;14.51;100.00;99096.94;1658142;86;20948;-66
2022/09/20 06:44:11;;;;;;;4.22;2.98;;;;;;;14.54;100.00;99098.98;1657790;86;21055;-65
2022/09/20 06:46:40;;;;;;;6.17;3.58;;;;;;;14.46;100.00;99090.27;1657833;86;21138;-68
2022/09/20 06:49:08;;;;;;;5.85;3.42;;;;;;;14.48;100.00;99097.65;1657707;86;21054;-69
2022/09/20 06:51:37;;;;;;;8.63;3.55;;;;;;;14.51;100.00;99098.31;1657789;86;20996;-72
2022/09/20 06:54:06;;;;;;;7.50;3.45;;;;;;;14.57;100.00;99101.03;1657594;86;20945;-70
2022/09/20 06:56:35;;;;;;;5.33;3.45;;;;;;;14.64;100.00;99097.64;1658105;86;20991;-67
2022/09/20 06:59:09;;;;;;;4.28;2.80;;;;;;;14.66;100.00;99087.00;1657983;86;21122;-67
2022/09/20 07:01:34;;;;;;;3.22;2.20;;;;;;;14.67;100.00;99086.42;1657882;86;20993;-72
2022/09/20 07:04:03;;;;;;;5.87;3.20;;;;;;;14.70;100.00;99087.09;1657793;86;21516;-68
2022/09/20 07:06:33;;;;;;;7.50;2.98;;;;;;;14.75;100.00;99085.44;1657774;86;20995;-69
2022/09/20 07:09:00;;;;;;;5.60;3.37;;;;;;;14.81;100.00;99086.79;1657826;86;21007;-69
2022/09/20 07:11:27;;;;;;;4.90;2.83;;;;;;;14.84;100.00;99087.45;1657786;86;21093;-71
2022/09/20 07:13:54;;;;;;;5.25;3.00;;;;;;;14.86;100.00;99082.93;1657885;86;20980;-69
2022/09/20 07:16:21;;;;;;;6.17;3.05;;;;;;;14.89;100.00;99083.62;1657757;86;20959;-69
2022/09/20 07:18:50;;;;;;;11.28;3.65;;;;;;;14.88;100.00;99085.34;1657631;86;20991;-64
2022/09/20 07:21:18;;;;;;;8.55;3.33;;;;;;;14.86;100.00;99082.93;1657732;85;21004;-65
2022/09/20 07:23:45;;;;;;;7.87;2.85;;;;;;;14.88;100.00;99079.80;1657898;86;21140;-72
2022/09/20 07:26:23;;;;;;;7.55;3.67;;;;;;;14.86;100.00;99074.61;1657816;86;20980;-71
2022/09/20 07:28:50;;;;;;;4.25;2.67;;;;;;;14.91;100.00;99072.95;1658001;86;21004;-71
2022/09/20 07:31:23;;;;;;;7.28;3.12;;;;;;;14.94;100.00;99078.37;1657691;86;21016;-72
2022/09/20 07:33:49;;;;;;;11.80;3.02;;;;;;;14.96;100.00;99080.21;1658239;86;20944;-72
2022/09/20 07:36:19;;;;;;;4.03;2.40;;;;;;;14.94;100.00;99093.03;1657991;85;21293;-68
2022/09/20 07:38:51;;;;;;;12.90;3.35;;;;;;;15.00;100.00;99089.41;1657791;86;21000;-71
2022/09/20 07:41:18;;;;;;;8.20;3.67;;;;;;;15.04;100.00;99086.14;1658280;86;21107;-68
2022/09/20 07:43:45;;;;;;;4.08;2.90;;;;;;;15.04;100.00;99085.33;1657859;86;20972;-73
2022/09/20 07:46:15;;;;;;;5.17;3.05;;;;;;;15.03;100.00;99088.67;1657750;86;20987;-66
2022/09/20 07:48:43;;;;;;;7.10;3.12;;;;;;;15.02;100.00;99089.04;1657849;86;21526;-72
2022/09/20 07:51:13;;;;;;;4.78;2.75;;;;;;;14.98;100.00;99086.78;1657692;86;20920;-73
2022/09/20 07:53:39;;;;;;;3.65;2.35;;;;;;;14.95;100.00;99094.66;1657976;86;21540;-70
2022/09/20 07:56:13;;;;;;;6.80;2.80;;;;;;;15.01;100.00;99091.60;1657705;86;20988;-73
2022/09/20 07:58:39;;;;;;;4.62;3.02;;;;;;;15.05;100.00;99095.25;1658162;86;21032;-73
2022/09/20 08:01:10;;;;;;;5.08;3.58;;;;;;;15.13;100.00;99097.62;1657682;86;21801;-68
2022/09/20 08:03:36;;;;;;;6.20;3.35;;;;;;;15.16;100.00;99094.94;1657871;86;20860;-72
2022/09/20 08:06:06;;;;;;;7.60;3.47;;;;;;;15.21;100.00;99096.05;1663137;86;21076;-73
2022/09/20 08:08:35;;;;;;;9.63;3.72;;;;;;;15.26;100.00;99096.91;1657828;86;21477;-69
2022/09/20 08:11:06;;;;;;;7.17;3.42;;;;;;;15.20;100.00;99093.59;1658108;86;20952;-73
2022/09/20 08:13:40;;;;;;;5.47;4.00;;;;;;;15.13;100.00;99090.69;1658030;86;21849;-70
2022/09/20 08:16:09;;;;;;;6.30;3.77;;;;;;;15.18;100.00;99094.56;1658130;86;21032;-72
2022/09/20 08:18:37;;;;;;;6.78;3.27;;;;;;;15.21;100.00;99095.23;1657977;86;21024;-73
2022/09/20 08:21:09;;;;;;;7.60;3.83;;;;;;;15.27;100.00;99098.53;1658130;86;20973;-73
2022/09/20 08:23:37;;;;;;;9.20;3.60;;;;;;;15.34;100.00;99098.67;1659743;85;21566;-71
2022/09/20 08:26:05;;;;;;;6.62;4.03;;;;;;;15.37;100.00;99100.72;1660050;85;21043;-74
2022/09/20 08:28:32;;;;;;;7.20;3.70;;;;;;;15.42;100.00;99094.87;1659958;86;21036;-71
2022/09/20 08:31:09;;;;;;;4.45;3.37;;;;;;;15.45;100.00;99101.12;1660010;86;21505;-70
2022/09/20 08:33:37;;;;;;;7.75;4.03;;;;;;;15.38;100.00;99100.95;1660036;86;20980;-74
2022/09/20 08:36:11;;;;;;;6.35;3.33;;;;;;;15.36;100.00;99094.95;1660391;86;20964;-70
2022/09/20 08:38:37;;;;;;;6.63;3.67;;;;;;;15.38;100.00;99098.75;1656426;86;21852;-74
2022/09/20 08:41:18;;;;;;;12.30;4.08;;;;;;;15.42;100.00;99089.94;1660079;85;20948;-72
2022/09/20 08:44:26;;;;;;;7.83;3.72;;;;;;;15.47;100.00;99087.45;1660217;86;20968;-71
2022/09/20 08:47:22;;;;;;;8.75;3.83;;;;;;;15.58;100.00;99089.86;1659991;86;20964;-70
2022/09/20 08:49:51;;;;;;;9.33;3.33;;;;;;;15.65;100.00;99091.41;1660458;86;20988;-71
2022/09/20 08:52:31;;;;;;;7.80;3.62;;;;;;;15.66;100.00;99088.05;1660167;86;21508;-70
2022/09/20 08:54:58;;;;;;;7.95;3.52;;;;;;;15.66;100.00;99082.50;1659929;86;21031;-72
2022/09/20 08:57:29;;;;;;;13.08;4.58;;;;;;;15.69;100.00;99088.09;1660090;86;20888;-73
2022/09/20 09:00:01;;;;;;;10.53;4.50;;;;;;;15.72;100.00;99085.77;1660146;86;21478;-67
2022/09/20 09:02:30;;;;;;;10.90;4.28;;;;;;;15.76;100.00;99084.66;1660031;86;20950;-66
2022/09/20 09:04:57;;;;;;;15.78;4.33;;;;;;;15.81;100.00;99084.97;1626210;86;21019;-73
2022/09/20 09:07:23;;;;;;;14.30;4.78;;;;;;;15.85;100.00;99083.66;1659992;86;21548;-68
2022/09/20 09:09:53;;;;;;;11.93;4.80;;;;;;;15.79;100.00;99085.34;1660053;86;20996;-73
2022/09/20 09:12:26;;;;;;;10.90;4.60;;;;;;;15.82;100.00;99085.99;1660244;86;21544;-72
2022/09/20 09:14:56;;;;;;;15.72;4.72;;;;;;;15.87;100.00;99086.84;1660045;85;20877;-68
2022/09/20 09:17:27;;;;;;;11.55;4.45;;;;;;;15.92;100.00;99083.77;1634987;86;21770;-71
2022/09/20 09:19:58;;;;;;;13.40;4.03;;;;;;;15.93;100.00;99077.84;1659967;86;20963;-70
2022/09/20 09:22:44;;;;;;;10.10;4.50;;;;;;;15.92;100.00;99079.03;1659704;86;21016;-70
2022/09/20 09:25:39;;;;;;;12.40;5.17;;;;;;;15.94;100.00;99074.50;1658004;86;20944;-74
2022/09/20 09:28:11;;;;;;;16.02;5.22;;;;;;;15.98;100.00;99077.34;1658117;86;21425;-72
2022/09/20 09:30:45;;;;;;;20.12;5.47;;;;;;;15.99;100.00;99075.62;1658128;86;21099;-73
2022/09/20 09:33:30;;;;;;;13.58;5.15;;;;;;;16.01;100.00;99080.80;1658121;86;20996;-73
2022/09/20 09:36:02;;;;;;;17.62;5.70;;;;;;;16.02;100.00;99076.27;1657805;86;21429;-73
2022/09/20 09:38:35;;;;;;;14.10;5.60;;;;;;;16.01;100.00;99076.63;1657881;86;20936;-74
2022/09/20 09:41:07;;;;;;;14.95;5.53;;;;;;;16.01;100.00;99075.25;1658058;86;21020;-73
2022/09/20 09:43:36;;;;;;;12.78;5.50;;;;;;;16.01;100.00;99076.05;1658137;86;21772;-73
2022/09/20 09:46:22;;;;;;;11.00;5.33;;;;;;;16.01;100.00;99072.47;1657746;86;20964;-73
2022/09/20 09:49:11;;;;;;;17.20;5.62;;;;;;;16.02;100.00;99069.92;1658158;86;21087;-69
2022/09/20 09:51:41;;;;;;;14.53;5.65;;;;;;;16.02;100.00;99071.31;1657822;86;21008;-74
2022/09/20 09:54:16;;;;;;;8.85;4.83;;;;;;;16.02;100.00;99068.53;1658061;86;21508;-69
2022/09/20 09:57:27;;;;;;;11.48;4.87;;;;;;;16.03;100.00;99064.58;1657910;86;21453;-75
2022/09/20 10:00:20;;;;;;;11.38;5.75;;;;;;;16.03;100.00;99070.13;1657690;86;21059;-71
2022/09/20 10:03:29;;;;;;;7.42;4.12;;;;;;;16.01;100.00;99066.33;1657793;86;20936;-75
2022/09/20 10:06:25;;;;;;;7.22;4.00;;;;;;;15.98;100.00;99060.09;1604687;89;20995;-73
2022/09/20 10:09:06;;;;;;;9.68;3.62;;;;;;;15.98;100.00;99058.71;1651809;86;21059;-68
2022/09/20 10:12:18;;;;;;;5.75;2.67;;;;;;;15.99;100.00;99052.00;1657992;86;21326;-73
2022/09/20 10:14:53;;;;;;;8.60;2.85;;;;;;;16.00;100.00;99050.82;1657817;86;20920;-72
2022/09/20 10:17:37;;;;;;;7.00;2.50;;;;;;;16.06;100.00;99047.97;1645975;86;21051;-73
2022/09/20 10:20:33;;;;;;;4.30;1.95;;;;;;;16.12;100.00;99056.79;1656960;86;27124;-73
2022/09/20 10:23:24;;;;;;;2.83;1.95;;;;;;;16.17;100.00;99048.15;1655899;86;21020;-72
2022/09/20 10:26:05;;;;;;;5.12;2.30;;;;;;;16.21;100.00;99055.16;1650122;86;21550;-73
2022/09/20 10:29:21;;;;;;;4.03;2.17;;;;;;;16.24;100.00;99057.20;1650906;86;20977;-72
2022/09/20 10:32:34;;;;;;;3.22;1.77;;;;;;;16.24;100.00;99050.25;1650869;86;21039;-70
2022/09/20 10:35:46;;;;;;;4.35;1.90;;;;;;;16.23;100.00;99049.23;1649725;87;38538;-66
2022/09/20 10:38:20;;;;;;;8.33;1.85;;;;;;;16.26;100.00;99049.30;1650329;86;21044;-70
2022/09/20 10:44:12;;;;;;;3.30;1.45;;;;;;;16.26;100.00;99042.35;1650960;87;20968;-74
2022/09/20 10:46:58;;;;;;;3.90;1.72;;;;;;;16.24;100.00;99039.13;1650631;87;21560;-71
2022/09/20 10:50:20;;;;;;;2.02;1.50;;;;;;;16.18;100.00;99032.28;1650632;86;20933;-66
2022/09/20 10:53:16;;;;;;;2.02;1.45;;;;;;;16.13;100.00;99033.41;1650737;86;21038;-72
2022/09/20 10:56:00;;;;;;;2.95;2.02;;;;;;;16.05;100.00;99021.34;1649885;86;21123;-74
2022/09/20 10:58:38;;;;;;;5.53;1.80;;;;;;;15.97;100.00;99018.80;1650660;86;20958;-74
2022/09/20 11:01:38;;;;;;;3.77;2.00;;;;;;;15.86;100.00;99013.84;1650652;86;20869;-73
2022/09/20 11:04:49;;;;;;;2.10;1.42;;;;;;;15.82;100.00;99009.61;1650712;87;20965;-74
2022/09/20 11:07:27;;;;;;;2.40;1.62;;;;;;;15.77;100.00;99009.91;1631131;86;21043;-74
2022/09/20 11:10:07;;;;;;;4.15;1.82;;;;;;;15.72;100.00;99008.81;1650557;86;21152;-74
2022/09/20 11:12:41;;;;;;;4.37;2.00;;;;;;;15.67;100.00;99007.73;1650257;86;21009;-70
2022/09/20 11:15:28;;;;;;;3.33;1.70;;;;;;;15.59;100.00;99004.02;1650606;87;21019;-71
2022/09/20 11:18:22;;;;;;;3.20;1.20;;;;;;;15.62;100.00;99003.28;1650774;87;20912;-73
2022/09/20 11:21:01;;;;;;;3.58;1.72;;;;;;;15.65;100.00;99002.55;1650813;86;20976;-72
2022/09/20 11:24:00;;;;;;;2.52;1.65;;;;;;;15.64;100.00;99007.89;1650550;86;22091;-65
2022/09/20 11:26:41;;;;;;;3.08;1.55;;;;;;;15.68;100.00;99013.48;1650591;86;20925;-71
2022/09/20 11:29:22;;;;;;;3.87;2.30;;;;;;;15.70;100.00;99012.55;1650790;87;21441;-73
2022/09/20 11:31:49;;;;;;;6.35;2.50;;;;;;;15.69;100.00;99014.51;1650513;86;21055;-73
2022/09/20 11:34:36;;;;;;;5.17;3.05;;;;;;;15.68;100.00;99012.91;1650565;86;21512;-72
2022/09/20 11:37:03;;;;;;;7.97;2.90;;;;;;;15.67;100.00;99016.06;1650624;87;21168;-67
2022/09/20 11:39:50;;;;;;;4.87;2.42;;;;;;;15.64;100.00;99018.19;1650692;87;21036;-72
2022/09/20 11:42:29;;;;;;;2.40;1.82;;;;;;;15.61;100.00;99011.38;1650748;87;21001;-72
2022/09/20 11:44:56;;;;;;;5.05;2.90;;;;;;;15.60;100.00;99015.91;1650953;86;20937;-74
2022/09/20 11:47:33;;;;;;;4.58;2.42;;;;;;;15.57;100.00;99015.47;1650913;87;21008;-69
2022/09/20 11:50:37;;;;;;;2.60;2.20;;;;;;;15.55;100.00;99012.85;1651014;86;21203;-73
2022/09/20 11:53:22;;;;;;;4.17;2.20;;;;;;;15.57;100.00;99010.52;1650811;86;21048;-74
2022/09/20 11:56:04;;;;;;;4.67;2.35;;;;;;;15.42;100.00;99010.22;1649217;86;21048;-66
2022/09/20 11:58:32;;;;;;;2.83;2.00;;;;;;;15.38;100.00;99008.55;1650834;87;20976;-73
2022/09/20 12:00:59;;;;;;;4.35;2.47;;;;;;;15.42;100.00;99010.83;1632142;87;21594;-73
2022/09/20 12:03:39;;;;;;;4.08;2.47;;;;;;;15.44;100.00;99007.89;1650875;87;21820;-74
2022/09/20 12:06:25;;;;;;;5.75;2.22;;;;;;;15.43;100.00;99006.87;1650587;86;21417;-75
2022/09/20 12:08:57;;;;;;;4.35;2.62;;;;;;;15.37;100.00;99015.28;1650719;87;20988;-76
2022/09/20 12:11:33;;;;;;;5.15;2.50;;;;;;;15.35;100.00;99016.22;1650751;87;21013;-75
2022/09/20 12:14:07;;;;;;;6.00;2.45;;;;;;;15.38;100.00;99019.08;1650771;87;21054;-69
2022/09/20 12:16:43;;;;;;;6.15;3.15;;;;;;;15.37;100.00;99010.52;1647502;86;20942;-70
2022/09/20 12:19:35;;;;;;;5.25;3.10;;;;;;;15.36;100.00;99011.69;1650630;87;20952;-72
2022/09/20 12:22:07;;;;;;;6.65;2.90;;;;;;;15.35;100.00;99009.28;1651030;87;20936;-71
2022/09/20 12:24:35;;;;;;;5.00;2.80;;;;;;;15.35;100.00;99008.70;1650766;86;20932;-75
2022/09/20 12:27:30;;;;;;;4.05;3.12;;;;;;;15.34;100.00;99001.53;1650717;86;20948;-75
2022/09/20 12:30:18;;;;;;;8.95;4.10;;;;;;;15.35;100.00;99003.16;1649281;87;21550;-69
2022/09/20 12:32:50;;;;;;;5.33;3.70;;;;;;;15.37;100.00;98998.62;1650886;87;21005;-74
2022/09/20 12:35:44;;;;;;;7.10;3.60;;;;;;;15.41;100.00;98998.09;1650795;87;21052;-70
2022/09/20 12:38:26;;;;;;;5.80;3.50;;;;;;;15.39;100.00;98997.08;1650913;87;20964;-73
2022/09/20 12:41:15;;;;;;;8.13;3.60;;;;;;;15.38;100.00;99003.00;1650305;87;20980;-67
2022/09/20 12:43:56;;;;;;;9.20;3.45;;;;;;;15.38;100.00;99001.61;1651101;87;21106;-69